Time;durP1;ratioP1;P1;durP2;ratioP2;P2;SDS_P1;SDS_P2;PMS_P1;PMS_P2;Temp;Humidity;BMP_temperature;BMP_pressure;BME280_temperature;BME280_humidity;BME280_pressure;Samples;Min_cycle;Max_cycle;Signal;HPM_P1;HPM_P2
2022/10/14 00:00:28;;;;;;;16.00;10.80;;;;;;;41.08;34.70;101127.63;4994707;28;20436;-76
2022/10/14 00:02:54;;;;;;;14.03;12.27;;;;;;;41.06;34.13;101125.22;4994818;28;20968;-76
2022/10/14 00:05:20;;;;;;;14.60;12.50;;;;;;;40.88;34.26;101123.59;4994631;28;20518;-76
2022/10/14 00:07:46;;;;;;;14.43;11.37;;;;;;;41.18;34.10;101127.28;4996218;28;20394;-75
2022/10/14 00:10:12;;;;;;;19.60;11.70;;;;;;;40.97;34.07;101126.38;4995365;28;20428;-76
2022/10/14 00:12:38;;;;;;;17.30;11.37;;;;;;;40.81;34.50;101123.28;4994517;28;20438;-76
2022/10/14 00:15:05;;;;;;;17.73;10.90;;;;;;;40.93;34.01;101122.66;4994345;28;20467;-76
2022/10/14 00:17:31;;;;;;;24.03;16.03;;;;;;;41.03;33.86;101120.44;4994372;28;20595;-76
2022/10/14 00:19:58;;;;;;;24.63;15.00;;;;;;;40.42;34.60;101126.91;5010545;28;20552;-75
2022/10/14 00:22:25;;;;;;;27.63;16.77;;;;;;;40.70;34.11;101130.16;4994609;28;20528;-76
2022/10/14 00:24:51;;;;;;;35.30;16.67;;;;;;;40.08;35.39;101125.69;5010935;28;20421;-76
2022/10/14 00:27:17;;;;;;;17.17;13.60;;;;;;;39.48;35.76;101137.03;5000233;28;21083;-76
2022/10/14 00:29:43;;;;;;;14.90;10.67;;;;;;;39.38;36.13;101129.16;5013737;28;20424;-76
2022/10/14 00:32:09;;;;;;;12.40;7.73;;;;;;;39.83;35.24;101120.94;5015225;28;20765;-76
2022/10/14 00:34:35;;;;;;;11.30;7.80;;;;;;;39.25;36.13;101124.59;5013692;28;21024;-76
2022/10/14 00:37:01;;;;;;;12.10;7.23;;;;;;;39.29;36.20;101104.69;5013933;28;20502;-76
2022/10/14 00:39:27;;;;;;;12.80;7.60;;;;;;;39.01;36.64;101112.09;5013388;28;20459;-76
2022/10/14 00:41:53;;;;;;;8.83;5.90;;;;;;;39.11;36.52;101101.00;5013564;28;20428;-76
2022/10/14 00:44:19;;;;;;;11.10;6.03;;;;;;;39.75;35.82;101096.16;5014801;28;20424;-77
2022/10/14 00:46:47;;;;;;;11.70;6.20;;;;;;;39.54;35.87;101094.28;5013418;28;20617;-77
2022/10/14 00:49:30;;;;;;;8.53;5.60;;;;;;;39.56;36.03;101075.75;5013399;28;20181;-77
2022/10/14 00:52:04;;;;;;;10.23;7.53;;;;;;;39.42;36.29;101087.50;5013301;28;20421;-76
2022/10/14 00:54:41;;;;;;;8.80;5.47;;;;;;;39.79;35.41;101084.69;5013078;28;20421;-76
2022/10/14 00:57:08;;;;;;;12.30;6.20;;;;;;;39.37;36.40;101086.84;5013224;28;20511;-76
2022/10/14 00:59:35;;;;;;;8.33;5.10;;;;;;;39.88;35.64;101072.72;5029572;28;20420;-76
2022/10/14 01:02:01;;;;;;;11.23;7.30;;;;;;;40.09;35.33;101064.81;5014521;28;20502;-76
2022/10/14 01:04:27;;;;;;;11.40;6.83;;;;;;;39.75;36.41;101062.75;5012961;28;20417;-76
2022/10/14 01:07:29;;;;;;;12.40;7.07;;;;;;;39.86;36.32;101055.94;5012719;28;20486;-77
2022/10/14 01:10:12;;;;;;;11.67;7.30;;;;;;;39.21;37.09;101051.13;5012891;28;20420;-76
2022/10/14 01:13:28;;;;;;;10.57;7.73;;;;;;;39.44;36.86;101049.19;5012883;28;20409;-76
2022/10/14 01:16:09;;;;;;;10.60;7.90;;;;;;;39.23;37.05;101055.16;5004385;28;20452;-76
2022/10/14 01:18:54;;;;;;;9.70;6.03;;;;;;;39.34;37.47;101049.44;5012868;28;20448;-76
2022/10/14 01:21:44;;;;;;;10.00;5.93;;;;;;;38.89;38.10;101044.84;5014384;28;20401;-76
2022/10/14 01:24:21;;;;;;;12.07;6.70;;;;;;;39.56;36.92;101043.97;5012719;28;20499;-76
2022/10/14 01:27:15;;;;;;;11.10;5.90;;;;;;;39.28;37.30;101048.78;5012558;28;20412;-76
2022/10/14 01:30:06;;;;;;;16.40;7.00;;;;;;;39.40;37.28;101046.28;5012531;28;20412;-75
2022/10/14 01:32:39;;;;;;;7.80;5.47;;;;;;;39.86;36.76;101036.13;5012535;28;20480;-76
2022/10/14 01:35:20;;;;;;;10.13;5.27;;;;;;;40.19;36.04;101040.03;5012509;28;20995;-76
2022/10/14 01:38:00;;;;;;;11.10;6.17;;;;;;;39.72;36.53;101036.25;5012765;28;20416;-76
2022/10/14 01:40:42;;;;;;;7.73;6.17;;;;;;;39.61;37.34;101043.06;5029292;28;20539;-77
2022/10/14 01:43:12;;;;;;;12.03;6.47;;;;;;;39.50;37.29;101042.50;5012381;28;20426;-78
2022/10/14 01:45:41;;;;;;;12.70;7.10;;;;;;;39.53;37.02;101031.00;5028392;28;20834;-78
2022/10/14 01:48:09;;;;;;;8.83;5.17;;;;;;;39.42;37.38;101037.84;5012290;28;20429;-76
2022/10/14 01:50:37;;;;;;;12.07;7.00;;;;;;;39.46;37.21;101036.91;5012063;28;20449;-75
2022/10/14 01:53:15;;;;;;;16.70;8.20;;;;;;;40.01;36.41;101027.50;5028700;28;20836;-76
2022/10/14 01:55:45;;;;;;;14.00;7.50;;;;;;;39.92;36.60;101035.66;5028554;28;20459;-75
2022/10/14 01:58:14;;;;;;;9.80;6.83;;;;;;;39.77;36.90;101036.09;5012220;28;20443;-76
2022/10/14 02:00:40;;;;;;;12.13;8.53;;;;;;;39.62;37.37;101040.03;5013838;28;20405;-76
2022/10/14 02:03:06;;;;;;;12.40;7.07;;;;;;;39.44;37.45;101036.41;5012133;28;20579;-76
2022/10/14 02:05:46;;;;;;;11.27;7.37;;;;;;;39.11;38.04;101040.53;5012023;28;20899;-76
2022/10/14 02:08:47;;;;;;;10.63;6.27;;;;;;;39.33;37.88;101037.78;5028758;28;20416;-76
2022/10/14 02:11:21;;;;;;;10.83;6.37;;;;;;;40.03;36.66;101028.81;5011314;28;20424;-76
2022/10/14 02:14:24;;;;;;;11.80;6.30;;;;;;;40.37;36.11;101026.47;5028428;28;20428;-75
2022/10/14 02:17:02;;;;;;;13.30;6.50;;;;;;;40.52;35.75;101017.88;5011828;28;20433;-77
2022/10/14 02:19:43;;;;;;;12.70;7.40;;;;;;;40.14;36.18;101012.22;5012010;28;20428;-78
2022/10/14 02:22:26;;;;;;;11.27;6.50;;;;;;;40.36;36.08;101024.88;5011718;28;20416;-77
2022/10/14 02:24:56;;;;;;;20.20;9.23;;;;;;;39.90;37.09;101018.06;5011787;28;20813;-76
2022/10/14 02:27:25;;;;;;;20.90;7.50;;;;;;;40.16;36.33;101010.81;5011530;28;20444;-76
2022/10/14 02:29:53;;;;;;;9.50;6.40;;;;;;;40.40;36.16;101018.50;5011749;28;20432;-76
2022/10/14 02:32:21;;;;;;;11.23;7.20;;;;;;;40.45;35.77;101017.50;5013263;28;20412;-76
2022/10/14 02:34:52;;;;;;;12.90;6.70;;;;;;;40.52;35.53;101023.31;5011522;28;20476;-76
2022/10/14 02:37:21;;;;;;;13.47;7.50;;;;;;;40.45;35.74;101025.66;5011634;28;20443;-76
2022/10/14 02:40:10;;;;;;;12.60;7.83;;;;;;;40.83;35.23;101033.22;5011332;28;20916;-76
2022/10/14 02:42:36;;;;;;;19.30;11.00;;;;;;;40.96;35.26;101030.34;5027864;28;20412;-76
2022/10/14 02:45:02;;;;;;;13.60;7.63;;;;;;;41.03;34.94;101016.22;5027681;28;20894;-76
2022/10/14 02:47:29;;;;;;;13.17;8.03;;;;;;;40.81;35.22;101015.28;5013076;28;20439;-76
2022/10/14 02:49:55;;;;;;;12.80;11.00;;;;;;;40.88;34.87;101020.22;5011414;28;20417;-76
2022/10/14 02:52:21;;;;;;;19.60;12.30;;;;;;;41.00;34.57;101005.97;5011462;28;20515;-76
2022/10/14 02:54:47;;;;;;;13.10;8.90;;;;;;;40.65;35.13;101014.19;5027616;28;20495;-76
2022/10/14 02:57:13;;;;;;;18.57;10.50;;;;;;;40.77;34.74;100997.22;5011414;28;20431;-76
2022/10/14 02:59:39;;;;;;;18.40;13.63;;;;;;;40.85;34.67;100998.31;5011370;28;20433;-76
2022/10/14 03:02:09;;;;;;;14.30;12.10;;;;;;;40.60;35.38;100989.88;5011162;28;20428;-78
2022/10/14 03:04:35;;;;;;;20.23;11.07;;;;;;;40.48;35.43;100984.28;5013062;28;20970;-78
2022/10/14 03:07:01;;;;;;;16.43;8.83;;;;;;;40.56;35.70;100997.06;5011302;28;20777;-76
2022/10/14 03:09:27;;;;;;;12.23;7.97;;;;;;;40.57;35.61;101006.81;5011208;28;20428;-76
2022/10/14 03:11:53;;;;;;;21.03;8.43;;;;;;;40.84;35.02;101002.16;5027716;28;20467;-76
2022/10/14 03:14:19;;;;;;;10.70;7.83;;;;;;;41.04;34.87;101005.00;5011167;28;20424;-76
2022/10/14 03:16:45;;;;;;;10.20;7.97;;;;;;;41.08;34.42;101003.25;5011294;28;21015;-75
2022/10/14 03:19:11;;;;;;;19.83;7.40;;;;;;;41.07;34.60;101001.66;5027785;28;20420;-75
2022/10/14 03:21:37;;;;;;;17.93;9.17;;;;;;;41.20;34.34;101004.50;5011213;28;20439;-76
2022/10/14 03:24:03;;;;;;;18.03;8.97;;;;;;;41.08;34.28;101005.19;5011166;28;20803;-76
2022/10/14 03:26:29;;;;;;;13.13;9.33;;;;;;;41.01;34.82;101004.88;5012595;28;20409;-76
2022/10/14 03:28:55;;;;;;;11.93;7.47;;;;;;;40.98;34.44;101002.78;5027736;28;20920;-76
2022/10/14 03:31:20;;;;;;;15.70;8.90;;;;;;;41.05;34.48;101008.53;5011290;28;20518;-75
2022/10/14 03:33:46;;;;;;;11.13;8.20;;;;;;;41.14;34.30;101001.16;5027890;28;20404;-76
2022/10/14 03:36:12;;;;;;;17.83;13.37;;;;;;;41.14;34.29;101008.53;5011223;28;20554;-76
2022/10/14 03:38:38;;;;;;;23.10;13.90;;;;;;;41.19;34.22;101008.31;5027420;28;20417;-76
2022/10/14 03:41:04;;;;;;;13.00;9.43;;;;;;;40.85;34.62;101001.03;5012097;28;20792;-76
2022/10/14 03:43:30;;;;;;;17.90;10.03;;;;;;;40.50;35.53;101001.06;5010825;28;20841;-75
2022/10/14 03:45:56;;;;;;;14.70;8.43;;;;;;;40.11;36.05;101002.81;5010825;28;21035;-76
2022/10/14 03:48:22;;;;;;;14.03;9.93;;;;;;;39.84;36.56;100992.16;5010655;28;20451;-76
2022/10/14 03:50:49;;;;;;;13.73;11.87;;;;;;;39.97;36.39;100997.50;5027627;28;20459;-76
2022/10/14 03:53:15;;;;;;;22.47;12.27;;;;;;;40.33;35.61;100969.25;5013218;28;20426;-76
2022/10/14 03:55:41;;;;;;;19.60;10.93;;;;;;;40.60;35.15;100987.16;5014653;28;20456;-76
2022/10/14 03:58:09;;;;;;;15.20;10.50;;;;;;;40.64;35.31;100985.41;5014713;28;20429;-76
2022/10/14 04:00:35;;;;;;;16.47;12.50;;;;;;;40.79;34.96;100984.88;5014352;28;20421;-76
2022/10/14 04:03:01;;;;;;;23.60;16.07;;;;;;;40.71;34.79;100971.31;5014569;28;20427;-78
2022/10/14 04:05:32;;;;;;;15.90;13.33;;;;;;;40.89;35.00;100974.81;5014340;28;20405;-78
2022/10/14 04:07:59;;;;;;;15.50;10.93;;;;;;;40.94;35.06;100993.69;5030685;28;20424;-77
2022/10/14 04:10:26;;;;;;;17.43;12.73;;;;;;;41.04;34.46;100994.13;5014244;28;20432;-76
2022/10/14 04:12:53;;;;;;;16.70;11.10;;;;;;;41.16;34.11;100987.22;5014198;28;20451;-76
2022/10/14 04:15:19;;;;;;;12.97;10.60;;;;;;;40.95;34.62;100981.69;5013724;28;20547;-76
2022/10/14 04:17:45;;;;;;;17.70;13.33;;;;;;;40.98;34.50;100987.25;5014053;28;20446;-75
2022/10/14 04:20:13;;;;;;;18.13;14.13;;;;;;;40.96;34.05;100986.81;5013933;28;20436;-76
2022/10/14 04:22:39;;;;;;;18.60;12.50;;;;;;;40.89;34.08;100985.69;5013912;28;20428;-76
2022/10/14 04:25:06;;;;;;;17.13;11.60;;;;;;;40.94;34.27;100986.31;5015463;28;20443;-76
2022/10/14 04:27:32;;;;;;;25.53;12.03;;;;;;;40.91;34.15;100997.84;5015050;28;20427;-76
2022/10/14 04:29:58;;;;;;;13.47;11.37;;;;;;;40.91;33.87;100978.81;5013934;28;20420;-76
2022/10/14 04:32:24;;;;;;;15.93;13.50;;;;;;;41.04;34.13;100998.78;5013954;28;20428;-75
2022/10/14 04:34:50;;;;;;;17.70;12.70;;;;;;;41.04;34.03;100996.06;5013645;28;20452;-76
2022/10/14 04:37:16;;;;;;;16.40;12.83;;;;;;;41.11;34.19;100993.63;5015416;28;20408;-76
2022/10/14 04:39:42;;;;;;;14.27;10.30;;;;;;;41.10;33.64;100989.31;5015125;28;20967;-76
2022/10/14 04:42:08;;;;;;;15.23;10.73;;;;;;;41.19;34.00;100995.53;5013319;28;20519;-76
2022/10/14 04:44:34;;;;;;;17.00;10.40;;;;;;;41.22;33.58;100994.88;5013413;28;21010;-75
2022/10/14 04:47:00;;;;;;;18.20;10.63;;;;;;;41.25;33.51;101005.13;5013264;28;20469;-76
2022/10/14 04:49:26;;;;;;;17.37;12.23;;;;;;;41.20;33.70;100994.41;5029940;28;20451;-76
2022/10/14 04:51:52;;;;;;;17.03;12.37;;;;;;;41.17;33.98;101002.41;5014948;28;20447;-76
2022/10/14 04:54:18;;;;;;;17.83;13.17;;;;;;;41.23;33.54;100999.19;5014924;28;20416;-77
2022/10/14 04:56:44;;;;;;;15.73;11.47;;;;;;;41.26;33.63;100997.75;5013141;28;20535;-76
2022/10/14 04:59:11;;;;;;;16.27;11.90;;;;;;;41.18;33.60;100983.03;5013184;28;20428;-76
2022/10/14 05:01:37;;;;;;;16.00;10.43;;;;;;;41.31;33.84;100998.38;5013290;28;20419;-76
2022/10/14 05:04:03;;;;;;;19.83;12.73;;;;;;;41.15;33.84;100991.88;5014680;28;20497;-76
2022/10/14 05:06:29;;;;;;;19.23;11.17;;;;;;;41.21;33.80;100995.22;5013152;28;20947;-75
2022/10/14 05:08:55;;;;;;;17.83;11.77;;;;;;;41.19;33.66;100998.25;5013802;28;20512;-76
2022/10/14 05:11:21;;;;;;;15.40;11.37;;;;;;;41.21;33.92;101001.44;5012897;28;20952;-75
2022/10/14 05:13:47;;;;;;;15.77;12.07;;;;;;;41.24;33.83;101005.44;5013064;28;20416;-75
2022/10/14 05:16:13;;;;;;;15.00;11.43;;;;;;;41.26;33.75;101009.44;5014444;28;20859;-75
2022/10/14 05:18:39;;;;;;;20.70;11.27;;;;;;;41.28;33.82;101009.91;5013214;28;20777;-76
2022/10/14 05:21:05;;;;;;;19.60;12.60;;;;;;;41.31;33.84;101020.16;5022032;28;20458;-76
2022/10/14 05:23:31;;;;;;;20.87;12.30;;;;;;;41.23;33.65;101029.13;5034060;28;20396;-75
2022/10/14 05:25:57;;;;;;;22.00;13.87;;;;;;;41.05;34.08;101028.38;5032927;28;20469;-76
2022/10/14 05:28:23;;;;;;;38.60;24.53;;;;;;;40.68;34.39;101021.69;5032204;28;20419;-76
2022/10/14 05:30:49;;;;;;;38.30;24.93;;;;;;;40.88;34.75;101031.09;5032822;28;20448;-76
2022/10/14 05:33:15;;;;;;;24.50;19.03;;;;;;;40.99;34.44;101037.03;5018402;28;20490;-76
2022/10/14 05:35:42;;;;;;;24.37;17.17;;;;;;;41.11;34.20;101042.63;5011561;28;20983;-76
2022/10/14 05:38:09;;;;;;;21.93;15.00;;;;;;;41.22;34.41;101052.03;5012151;28;20455;-76
2022/10/14 05:40:35;;;;;;;27.77;15.40;;;;;;;41.25;34.18;101059.56;5013532;28;20475;-76
2022/10/14 05:43:01;;;;;;;30.93;16.80;;;;;;;41.27;34.08;101062.75;5012454;28;20408;-76
2022/10/14 05:45:27;;;;;;;28.10;17.10;;;;;;;41.30;34.24;101058.56;5012235;28;20472;-77
2022/10/14 05:47:53;;;;;;;17.60;14.17;;;;;;;41.36;34.04;101057.28;5012329;28;20437;-77
2022/10/14 05:50:19;;;;;;;26.30;13.77;;;;;;;41.43;33.75;101062.25;5012913;28;20428;-75
2022/10/14 05:52:45;;;;;;;16.60;12.30;;;;;;;41.41;33.79;101062.56;5011411;28;20412;-80
2022/10/14 05:55:11;;;;;;;29.57;14.40;;;;;;;41.42;33.75;101066.09;5011275;28;20472;-80
2022/10/14 05:57:37;;;;;;;20.23;13.07;;;;;;;41.50;33.53;101068.00;5011437;28;20431;-76
2022/10/14 06:00:03;;;;;;;26.87;17.43;;;;;;;41.46;33.80;101061.59;5011954;28;20511;-76
2022/10/14 06:02:30;;;;;;;26.53;18.87;;;;;;;41.50;33.72;101068.00;5011816;28;20449;-78
2022/10/14 06:04:57;;;;;;;26.67;21.57;;;;;;;41.41;33.70;101067.22;5011518;28;20424;-79
2022/10/14 06:07:23;;;;;;;32.83;20.13;;;;;;;41.54;33.76;101074.38;5010889;28;20444;-78
2022/10/14 06:09:49;;;;;;;23.43;17.50;;;;;;;41.56;33.59;101075.66;4994575;28;20804;-79
2022/10/14 06:12:15;;;;;;;22.23;17.83;;;;;;;41.59;33.36;101063.31;4996733;28;20444;-77
2022/10/14 06:14:41;;;;;;;20.20;15.83;;;;;;;41.64;33.35;101071.31;4992017;28;21002;-77
2022/10/14 06:17:07;;;;;;;24.60;14.70;;;;;;;41.73;33.53;101071.25;4992178;28;20827;-77
2022/10/14 06:19:33;;;;;;;19.27;15.00;;;;;;;41.76;33.24;101071.44;4992251;28;20453;-77
2022/10/14 06:21:59;;;;;;;21.80;14.10;;;;;;;41.69;33.48;101062.94;5003885;28;20446;-80
2022/10/14 06:24:25;;;;;;;20.57;14.37;;;;;;;41.72;33.52;101065.00;5002514;28;20524;-78
2022/10/14 06:26:51;;;;;;;14.57;11.23;;;;;;;41.76;33.38;101071.44;5008537;28;20503;-80
2022/10/14 06:29:17;;;;;;;18.90;13.03;;;;;;;41.81;33.30;101070.47;5010044;28;21014;-78
2022/10/14 06:31:43;;;;;;;28.90;15.30;;;;;;;41.93;32.86;101075.19;5010132;28;21006;-80
2022/10/14 06:34:09;;;;;;;19.60;13.47;;;;;;;41.88;32.97;101070.72;5010084;28;20486;-78
2022/10/14 06:36:35;;;;;;;24.30;12.27;;;;;;;42.00;32.96;101075.47;5012213;28;20523;-72
2022/10/14 06:39:03;;;;;;;19.10;13.60;;;;;;;42.10;32.75;101091.44;4991898;28;20417;-72
2022/10/14 06:41:31;;;;;;;18.23;13.30;;;;;;;42.08;32.56;101088.25;4986787;28;20471;-72
2022/10/14 06:43:57;;;;;;;22.07;17.13;;;;;;;42.08;32.76;101085.53;5001122;28;20417;-72
2022/10/14 06:46:24;;;;;;;37.23;29.93;;;;;;;42.17;32.67;101090.94;4996946;28;20473;-74
2022/10/14 06:48:51;;;;;;;32.00;23.83;;;;;;;42.20;32.83;101090.28;4993521;28;21024;-72
2022/10/14 06:51:17;;;;;;;38.33;22.43;;;;;;;42.27;32.57;101098.75;5003380;28;20496;-74
2022/10/14 06:53:43;;;;;;;22.13;16.40;;;;;;;42.27;32.83;101098.75;5008930;28;21103;-74
2022/10/14 06:56:10;;;;;;;23.33;16.67;;;;;;;42.31;32.54;101102.41;5008757;28;20463;-73
2022/10/14 06:58:37;;;;;;;20.57;15.20;;;;;;;42.39;32.48;101109.72;5010546;28;20409;-74
2022/10/14 07:01:04;;;;;;;20.17;14.87;;;;;;;42.42;32.53;101119.16;5009443;28;20425;-73
2022/10/14 07:03:32;;;;;;;21.90;13.60;;;;;;;42.44;32.45;101125.09;5010833;28;20936;-73
2022/10/14 07:06:02;;;;;;;27.10;15.10;;;;;;;42.47;32.74;101141.56;5010855;28;20409;-73
2022/10/14 07:08:29;;;;;;;21.20;14.23;;;;;;;42.50;32.51;101138.19;5010752;28;20943;-72
2022/10/14 07:10:55;;;;;;;17.70;12.27;;;;;;;42.55;32.58;101153.56;5008128;28;20401;-72
2022/10/14 07:13:21;;;;;;;18.57;13.67;;;;;;;42.54;32.60;101149.22;5001685;28;20420;-72
2022/10/14 07:15:48;;;;;;;20.70;14.37;;;;;;;42.36;32.64;101148.56;5001881;28;21027;-72
2022/10/14 07:18:15;;;;;;;22.90;16.20;;;;;;;42.45;32.76;101153.97;5003105;28;20490;-71
2022/10/14 07:20:41;;;;;;;18.00;14.43;;;;;;;42.56;32.24;101153.25;5013585;28;20420;-71
2022/10/14 07:23:07;;;;;;;24.00;15.67;;;;;;;42.67;32.27;101169.25;5008474;28;20599;-72
2022/10/14 07:25:33;;;;;;;18.07;12.23;;;;;;;42.69;32.18;101173.22;5007378;28;20487;-72
2022/10/14 07:27:59;;;;;;;19.13;10.90;;;;;;;42.74;31.65;101175.78;5001248;28;21010;-71
2022/10/14 07:30:26;;;;;;;14.37;11.23;;;;;;;42.75;31.52;101177.34;5003158;28;20960;-71
2022/10/14 07:32:52;;;;;;;15.57;9.17;;;;;;;42.77;31.70;101174.28;5003832;28;20412;-72
2022/10/14 07:35:18;;;;;;;15.57;11.40;;;;;;;42.80;31.78;101182.63;5006604;28;20463;-71
2022/10/14 07:37:46;;;;;;;17.30;10.27;;;;;;;42.94;31.80;101187.81;5003174;28;20428;-71
2022/10/14 07:40:12;;;;;;;17.87;9.93;;;;;;;43.03;31.24;101191.31;5001746;28;20452;-74
2022/10/14 07:42:38;;;;;;;14.87;8.77;;;;;;;43.08;31.10;101190.28;5011622;28;20405;-71
2022/10/14 07:45:06;;;;;;;14.60;9.97;;;;;;;43.11;31.31;101195.09;5012493;28;20409;-75
2022/10/14 07:47:32;;;;;;;27.03;9.70;;;;;;;43.00;30.96;101191.16;5013033;28;20457;-73
2022/10/14 07:50:01;;;;;;;26.87;11.80;;;;;;;42.99;31.18;101189.56;5012668;28;20417;-73
2022/10/14 07:52:27;;;;;;;18.53;9.27;;;;;;;43.03;31.13;101191.31;5014375;28;20412;-73
2022/10/14 07:54:54;;;;;;;15.83;11.00;;;;;;;43.04;31.21;101195.63;5013601;28;20460;-71
2022/10/14 07:57:22;;;;;;;28.67;11.80;;;;;;;43.01;31.15;101199.00;5015422;28;20413;-71
2022/10/14 07:59:48;;;;;;;14.60;10.80;;;;;;;43.00;31.46;101204.81;5013805;28;20424;-72
2022/10/14 08:02:14;;;;;;;15.00;9.80;;;;;;;42.96;31.53;101206.56;5012040;28;20416;-78
2022/10/14 08:04:40;;;;;;;21.33;10.57;;;;;;;42.92;31.33;101217.38;5008382;28;20425;-78
2022/10/14 08:07:06;;;;;;;12.50;10.57;;;;;;;42.97;31.51;101213.63;5013722;28;20435;-73
2022/10/14 08:09:35;;;;;;;15.80;9.30;;;;;;;42.92;31.27;101215.44;5014100;28;20477;-71
2022/10/14 08:12:01;;;;;;;12.97;9.70;;;;;;;42.97;31.37;101222.63;5014991;28;20466;-71
2022/10/14 08:14:28;;;;;;;16.23;9.47;;;;;;;42.95;31.31;101219.41;5010201;28;20447;-71
2022/10/14 08:16:54;;;;;;;21.33;8.93;;;;;;;43.05;31.35;101219.06;5010831;28;21014;-73
2022/10/14 08:19:20;;;;;;;15.60;7.83;;;;;;;43.05;31.55;101235.44;5013275;28;20420;-72
2022/10/14 08:21:47;;;;;;;12.07;8.27;;;;;;;43.00;31.59;101224.72;5013629;28;20424;-77
2022/10/14 08:24:13;;;;;;;18.27;8.90;;;;;;;42.89;31.89;101221.53;5013217;28;20428;-75
2022/10/14 08:26:53;;;;;;;12.30;7.93;;;;;;;42.96;32.17;101217.47;5013860;28;20397;-77
2022/10/14 08:29:23;;;;;;;15.27;9.20;;;;;;;43.05;31.69;101223.72;5011172;28;21068;-78
2022/10/14 08:31:51;;;;;;;18.97;8.60;;;;;;;43.02;31.85;101219.72;5013368;28;20428;-76
2022/10/14 08:34:22;;;;;;;14.07;8.20;;;;;;;43.08;31.83;101223.84;5013392;28;20420;-76
2022/10/14 08:36:49;;;;;;;10.20;6.57;;;;;;;43.05;31.82;101223.72;5013314;28;20468;-76
2022/10/14 08:39:19;;;;;;;13.80;6.80;;;;;;;43.04;31.54;101222.13;5013972;28;20455;-76
2022/10/14 08:42:18;;;;;;;15.10;9.63;;;;;;;42.77;32.09;101224.19;5014444;28;20459;-75
2022/10/14 08:45:21;;;;;;;15.33;9.00;;;;;;;42.87;31.96;101212.91;5027943;28;20476;-75
2022/10/14 08:47:48;;;;;;;14.43;7.70;;;;;;;42.93;32.07;101222.47;4989924;28;20552;-75
2022/10/14 08:50:33;;;;;;;15.40;7.83;;;;;;;43.00;31.78;101221.19;5010820;28;20428;-73
2022/10/14 08:53:03;;;;;;;13.17;8.60;;;;;;;42.42;32.25;101212.69;5008628;28;20809;-72
2022/10/14 08:55:45;;;;;;;12.07;6.63;;;;;;;42.83;31.89;101228.34;4993805;28;20461;-72
2022/10/14 08:58:23;;;;;;;14.10;8.13;;;;;;;42.68;31.97;101225.41;5021821;28;20556;-73
2022/10/14 09:00:52;;;;;;;11.47;7.20;;;;;;;42.88;31.88;101222.69;4993711;28;20516;-72
2022/10/14 09:03:32;;;;;;;14.80;7.43;;;;;;;42.85;31.85;101226.09;4993566;28;20427;-74
2022/10/14 09:06:32;;;;;;;18.50;8.03;;;;;;;42.67;32.17;101232.00;5011036;28;20815;-74
2022/10/14 09:09:30;;;;;;;11.17;7.10;;;;;;;42.95;31.77;101233.06;4992836;28;20421;-74
2022/10/14 09:12:04;;;;;;;17.80;6.67;;;;;;;42.88;31.77;101225.41;5012911;28;20441;-74
2022/10/14 09:14:41;;;;;;;11.93;7.20;;;;;;;42.86;32.01;101224.94;5012842;28;20490;-74
2022/10/14 09:17:23;;;;;;;12.73;7.73;;;;;;;42.49;32.66;101223.09;5012855;28;20471;-73
2022/10/14 09:20:21;;;;;;;14.27;6.40;;;;;;;42.55;32.13;101216.31;5012899;28;20428;-74
2022/10/14 09:23:16;;;;;;;11.70;7.33;;;;;;;42.94;31.77;101226.00;5012855;28;20435;-73
2022/10/14 09:26:12;;;;;;;11.40;7.27;;;;;;;42.98;31.75;101229.72;5012759;28;20429;-73
2022/10/14 09:28:42;;;;;;;12.53;6.50;;;;;;;42.91;31.83;101222.03;5004640;28;20422;-72
2022/10/14 09:31:12;;;;;;;13.57;7.33;;;;;;;42.92;31.70;101231.81;5008105;28;20827;-75
2022/10/14 09:33:40;;;;;;;15.70;7.27;;;;;;;42.97;31.73;101233.56;5012575;28;20932;-73
2022/10/14 09:36:17;;;;;;;12.40;7.20;;;;;;;42.55;32.37;101232.69;5013847;28;20538;-73
2022/10/14 09:38:52;;;;;;;15.33;6.83;;;;;;;42.50;32.50;101230.13;5012221;28;20956;-73
2022/10/14 09:41:31;;;;;;;15.30;7.83;;;;;;;42.85;32.17;101226.09;5010188;28;20432;-72
2022/10/14 09:44:24;;;;;;;15.50;8.17;;;;;;;43.00;31.86;101226.66;5011770;28;20424;-73
2022/10/14 09:47:01;;;;;;;13.73;6.90;;;;;;;42.71;32.58;101224.72;5010008;28;21003;-72
2022/10/14 09:49:41;;;;;;;18.80;7.70;;;;;;;43.09;32.31;101224.63;5011580;28;20960;-75
2022/10/14 09:52:20;;;;;;;11.13;6.77;;;;;;;42.91;31.53;101223.97;5011873;28;20428;-77
2022/10/14 09:54:56;;;;;;;21.60;7.83;;;;;;;43.11;31.44;101222.38;5012332;28;20917;-75
2022/10/14 09:57:23;;;;;;;13.40;6.37;;;;;;;42.92;31.56;101215.44;5010985;28;20448;-76
2022/10/14 09:59:57;;;;;;;15.43;7.80;;;;;;;43.09;31.67;101217.25;5011846;28;20428;-76
2022/10/14 10:02:41;;;;;;;14.10;7.03;;;;;;;43.03;32.00;101206.84;5011991;28;20416;-78
2022/10/14 10:05:32;;;;;;;10.43;6.57;;;;;;;43.18;31.42;101222.63;5012169;28;20416;-76
2022/10/14 10:08:09;;;;;;;8.77;6.70;;;;;;;43.31;31.44;101224.28;5011773;28;20420;-76
2022/10/14 10:10:36;;;;;;;11.53;5.63;;;;;;;43.32;31.47;101217.69;5011976;28;20416;-77
2022/10/14 10:13:04;;;;;;;11.20;7.60;;;;;;;43.47;30.95;101221.75;5011296;28;20424;-76
2022/10/14 10:15:31;;;;;;;11.10;5.87;;;;;;;43.26;31.86;101216.28;4995165;28;20607;-76
2022/10/14 10:17:57;;;;;;;9.43;6.47;;;;;;;43.45;31.34;101208.41;5011687;28;20423;-75
2022/10/14 10:20:33;;;;;;;13.13;5.93;;;;;;;43.38;31.28;101221.84;5011298;28;20999;-74
2022/10/14 10:23:24;;;;;;;11.97;7.30;;;;;;;43.34;31.64;101218.16;5009436;28;20452;-75
2022/10/14 10:25:51;;;;;;;12.37;5.80;;;;;;;43.45;31.02;101215.81;5010857;28;20417;-74
2022/10/14 10:28:31;;;;;;;11.23;6.20;;;;;;;43.37;30.80;101203.03;5008534;28;20404;-75
2022/10/14 10:31:27;;;;;;;15.63;8.97;;;;;;;43.48;30.90;101220.63;5025438;28;20423;-75
2022/10/14 10:34:23;;;;;;;14.40;6.30;;;;;;;43.31;31.31;101210.63;5010760;28;20419;-75
2022/10/14 10:36:57;;;;;;;14.80;6.53;;;;;;;43.55;30.52;101209.94;5010324;28;20451;-76
2022/10/14 10:40:06;;;;;;;10.83;5.30;;;;;;;43.63;30.15;101210.97;5011588;28;20408;-76
2022/10/14 10:42:58;;;;;;;11.13;5.33;;;;;;;43.28;30.44;101205.84;5011513;28;20478;-75
2022/10/14 10:45:31;;;;;;;18.27;5.37;;;;;;;43.55;30.05;101198.22;5011161;28;20447;-76
2022/10/14 10:48:19;;;;;;;10.20;6.73;;;;;;;43.37;30.48;101195.63;5013290;28;20463;-74
2022/10/14 10:50:56;;;;;;;10.67;5.73;;;;;;;43.49;30.18;101194.91;5009599;28;20444;-74
2022/10/14 10:53:40;;;;;;;8.10;4.40;;;;;;;43.56;30.17;101197.06;5009909;28;20408;-74
2022/10/14 10:56:38;;;;;;;12.73;5.63;;;;;;;43.02;30.38;101199.81;5011212;28;20821;-75
2022/10/14 10:59:24;;;;;;;9.10;5.30;;;;;;;43.41;29.82;101195.78;5011387;28;20439;-75
2022/10/14 11:02:19;;;;;;;10.47;5.83;;;;;;;43.57;29.71;101196.72;5012940;28;20967;-74
2022/10/14 11:04:56;;;;;;;13.17;5.10;;;;;;;43.51;29.50;101186.34;5014472;28;20423;-76
2022/10/14 11:13:50;;;;;;;11.63;5.80;;;;;;;43.31;30.63;101174.34;5016244;28;20388;-74
2022/10/14 11:16:32;;;;;;;7.57;5.17;;;;;;;43.44;30.68;101176.78;5029116;28;20452;-75
2022/10/14 11:54:31;;;;;;;10.73;6.93;;;;;;;43.04;31.83;101156.63;5120768;27;20708;-83
2022/10/14 11:57:00;;;;;;;9.03;5.50;;;;;;;43.13;31.31;101154.59;5087191;28;20460;-80
2022/10/14 12:02:52;;;;;;;14.90;6.40;;;;;;;43.32;31.30;101143.16;5088625;28;20576;-81
2022/10/14 12:05:35;;;;;;;15.57;6.30;;;;;;;43.56;30.27;101145.16;5072368;28;20428;-81
2022/10/14 12:08:24;;;;;;;10.13;5.83;;;;;;;43.55;30.72;101144.38;5071519;28;20417;-80
2022/10/14 12:11:09;;;;;;;11.10;5.97;;;;;;;43.51;31.05;101142.66;5077303;28;20814;-76
2022/10/14 12:13:43;;;;;;;11.03;5.77;;;;;;;43.28;31.17;101134.84;5107787;28;20418;-77
2022/10/14 12:16:17;;;;;;;14.40;6.20;;;;;;;43.08;31.54;101125.56;5084538;28;20811;-76
2022/10/14 12:18:46;;;;;;;14.33;6.20;;;;;;;43.13;31.38;101121.84;5085112;28;20931;-78